createdAt,value
2019-01-19T00:00:08.788Z,13.20
2019-01-19T00:06:51.516Z,13.60
2019-01-19T00:09:29.522Z,10.67
2019-01-19T00:12:35.820Z,11.63
2019-01-19T00:15:21.104Z,11.33
2019-01-19T00:21:50.545Z,10.47
2019-01-19T00:25:14.593Z,9.97
2019-01-19T00:35:31.791Z,10.60
2019-01-19T00:42:02.820Z,9.47
2019-01-19T00:45:36.423Z,13.57
2019-01-19T00:48:39.371Z,11.43
2019-01-19T00:51:56.126Z,9.23
2019-01-19T00:55:17.847Z,10.97
2019-01-19T01:02:10.767Z,11.90
2019-01-19T01:05:25.362Z,14.10
2019-01-19T01:08:50.426Z,10.10
2019-01-19T01:12:08.577Z,10.90
2019-01-19T01:15:04.919Z,12.37
2019-01-19T01:18:15.717Z,11.60
2019-01-19T01:21:41.173Z,11.37
2019-01-19T01:24:51.164Z,12.07
2019-01-19T01:27:56.585Z,11.70
2019-01-19T01:34:35.649Z,12.53
2019-01-19T01:41:39.118Z,10.03
2019-01-19T01:45:03.266Z,10.03
2019-01-19T01:48:10.880Z,10.93
2019-01-19T01:54:59.165Z,11.30
2019-01-19T01:57:51.866Z,9.77
2019-01-19T02:00:48.447Z,12.53
2019-01-19T02:03:50.285Z,10.30
2019-01-19T02:06:39.811Z,11.00
2019-01-19T02:09:20.555Z,9.47
2019-01-19T02:12:43.569Z,9.90
2019-01-19T02:15:33.890Z,9.90
2019-01-19T02:22:21.100Z,10.60
2019-01-19T02:25:20.046Z,10.83
2019-01-19T02:28:26.020Z,10.37
2019-01-19T02:32:07.141Z,11.27
2019-01-19T02:39:15.398Z,9.40
2019-01-19T02:46:26.679Z,9.40
2019-01-19T02:49:35.870Z,9.23
2019-01-19T02:52:59.056Z,10.43
2019-01-19T02:56:05.363Z,9.63
2019-01-19T02:59:15.885Z,8.17
2019-01-19T03:05:47.969Z,10.03
2019-01-19T03:09:04.500Z,8.07
2019-01-19T03:12:32.571Z,9.37
2019-01-19T03:15:40.245Z,8.23
2019-01-19T03:18:34.394Z,8.93
2019-01-19T03:21:43.902Z,6.50
2019-01-19T03:24:29.373Z,7.97
2019-01-19T03:27:49.852Z,6.60
2019-01-19T03:34:31.433Z,8.00
2019-01-19T03:45:08.816Z,7.10
2019-01-19T03:48:24.131Z,10.13
2019-01-19T03:51:37.692Z,8.77
2019-01-19T03:57:51.054Z,11.13
2019-01-19T04:01:14.338Z,9.20
2019-01-19T04:04:21.813Z,7.80
2019-01-19T04:07:21.622Z,9.30
2019-01-19T04:13:57.873Z,9.40
2019-01-19T04:17:07.889Z,7.37
2019-01-19T04:19:56.006Z,11.20
2019-01-19T04:22:45.248Z,9.07
2019-01-19T04:25:19.611Z,8.83
2019-01-19T04:27:49.248Z,10.73
2019-01-19T04:30:18.812Z,7.30
2019-01-19T04:32:48.468Z,8.13
2019-01-19T04:35:18.507Z,9.20
2019-01-19T04:37:48.064Z,8.20
2019-01-19T04:40:17.668Z,8.70
2019-01-19T04:42:47.789Z,9.40
2019-01-19T04:45:17.438Z,9.30
2019-01-19T04:47:46.894Z,8.80
2019-01-19T04:50:16.790Z,8.83
2019-01-19T04:52:46.330Z,7.90
2019-01-19T04:55:16.052Z,9.37
2019-01-19T04:57:46.588Z,8.77
2019-01-19T05:00:18.356Z,9.10
2019-01-19T05:02:48.086Z,8.27
2019-01-19T05:05:17.654Z,10.43
2019-01-19T05:07:47.266Z,9.10
2019-01-19T05:10:16.940Z,7.93
2019-01-19T05:12:46.619Z,8.23
2019-01-19T05:15:18.973Z,8.07
2019-01-19T05:17:48.679Z,9.07
2019-01-19T05:20:18.368Z,10.20
2019-01-19T05:22:47.876Z,9.60
2019-01-19T05:25:17.559Z,11.30
2019-01-19T05:27:47.043Z,9.57
2019-01-19T05:30:35.498Z,11.33
2019-01-19T05:33:05.015Z,7.90
2019-01-19T05:35:34.704Z,11.03
2019-01-19T05:38:04.290Z,10.67
2019-01-19T05:40:33.957Z,9.63
2019-01-19T05:43:03.625Z,10.30
2019-01-19T05:45:33.282Z,9.67
2019-01-19T05:48:02.946Z,9.97
2019-01-19T05:50:32.599Z,9.23
2019-01-19T05:53:02.222Z,9.97
2019-01-19T05:55:31.766Z,9.80
2019-01-19T05:58:01.440Z,10.00
2019-01-19T06:00:35.894Z,10.57
2019-01-19T06:05:56.552Z,8.37
2019-01-19T06:08:26.078Z,8.40
2019-01-19T06:10:55.756Z,9.27
2019-01-19T06:13:25.367Z,8.50
2019-01-19T06:15:54.999Z,9.90
2019-01-19T06:18:24.519Z,9.03
2019-01-19T06:21:55.175Z,9.30
2019-01-19T06:24:25.092Z,10.30
2019-01-19T06:26:54.910Z,9.63
2019-01-19T06:29:24.516Z,7.33
2019-01-19T06:31:54.216Z,10.13
2019-01-19T06:34:23.733Z,8.37
2019-01-19T06:36:55.100Z,8.30
2019-01-19T06:42:31.692Z,8.80
2019-01-19T06:45:01.336Z,7.73
2019-01-19T06:47:30.993Z,9.30
2019-01-19T06:50:00.408Z,8.30
2019-01-19T06:52:30.054Z,10.03
2019-01-19T06:54:59.684Z,9.33
2019-01-19T06:57:29.331Z,8.97
2019-01-19T06:59:59.477Z,9.00
2019-01-19T07:02:49.959Z,8.73
2019-01-19T07:05:19.474Z,9.83
2019-01-19T07:07:49.081Z,10.20
2019-01-19T07:10:20.963Z,8.40
2019-01-19T07:12:52.845Z,8.97
2019-01-19T07:15:22.427Z,8.10
2019-01-19T07:17:52.097Z,8.03
2019-01-19T07:23:29.171Z,10.53
2019-01-19T07:26:29.239Z,8.93
2019-01-19T07:28:58.977Z,8.03
2019-01-19T07:31:28.567Z,8.57
2019-01-19T07:33:58.208Z,8.07
2019-01-19T07:36:27.707Z,10.17
2019-01-19T07:39:03.525Z,9.93
2019-01-19T07:41:52.037Z,10.80
2019-01-19T07:44:21.740Z,9.57
2019-01-19T07:47:10.781Z,10.77
2019-01-19T07:49:40.462Z,9.17
2019-01-19T07:52:10.238Z,9.60
2019-01-19T07:54:39.861Z,9.83
2019-01-19T07:59:47.451Z,8.87
2019-01-19T08:02:17.166Z,8.73
2019-01-19T08:04:46.817Z,9.23
2019-01-19T08:07:17.385Z,9.63
2019-01-19T08:09:47.334Z,9.30
2019-01-19T08:12:53.222Z,10.77
2019-01-19T08:15:25.043Z,8.40
2019-01-19T08:17:54.832Z,11.90
2019-01-19T08:20:24.586Z,9.03
2019-01-19T08:22:54.394Z,10.00
2019-01-19T08:25:24.114Z,12.73
2019-01-19T08:27:53.736Z,9.50
2019-01-19T08:30:28.340Z,9.43
2019-01-19T08:32:57.894Z,9.27
2019-01-19T08:38:13.381Z,9.30
2019-01-19T08:41:47.793Z,9.90
2019-01-19T08:44:19.048Z,10.30
2019-01-19T08:46:49.275Z,10.70
2019-01-19T08:49:18.790Z,9.50
2019-01-19T08:51:48.330Z,9.53
2019-01-19T08:54:17.946Z,11.17
2019-01-19T08:56:47.708Z,11.47
2019-01-19T08:59:17.330Z,10.27
2019-01-19T09:01:47.028Z,9.67
2019-01-19T09:04:16.620Z,11.23
2019-01-19T09:06:46.148Z,9.57
2019-01-19T09:09:15.710Z,10.27
2019-01-19T09:11:45.296Z,9.80
2019-01-19T09:14:14.825Z,10.10
2019-01-19T09:16:44.628Z,9.53
2019-01-19T09:19:14.263Z,10.77
2019-01-19T09:21:43.909Z,11.70
2019-01-19T09:24:40.706Z,11.50
2019-01-19T09:27:10.383Z,9.97
2019-01-19T09:29:39.965Z,8.50
2019-01-19T09:32:09.960Z,12.67
2019-01-19T09:34:39.478Z,9.73
2019-01-19T09:37:09.105Z,9.13
2019-01-19T09:39:38.918Z,10.30
2019-01-19T09:42:08.460Z,9.80
2019-01-19T09:44:38.188Z,8.50
2019-01-19T09:47:07.908Z,11.50
2019-01-19T09:49:37.465Z,10.57
2019-01-19T09:52:07.308Z,7.90
2019-01-19T09:54:36.973Z,8.90
2019-01-19T09:57:06.625Z,8.80
2019-01-19T09:59:36.102Z,9.17
2019-01-19T10:02:05.832Z,7.90
2019-01-19T10:04:35.496Z,6.93
2019-01-19T10:07:05.397Z,7.23
2019-01-19T10:09:35.117Z,9.07
2019-01-19T10:12:04.704Z,7.20
2019-01-19T10:14:34.366Z,9.03
2019-01-19T10:17:04.104Z,8.23
2019-01-19T10:19:33.765Z,7.63
2019-01-19T10:22:03.399Z,8.80
2019-01-19T10:24:33.143Z,7.87
2019-01-19T10:27:02.762Z,6.73
2019-01-19T10:29:32.289Z,7.80
2019-01-19T10:32:01.750Z,6.50
2019-01-19T10:34:31.458Z,6.27
2019-01-19T10:37:01.132Z,6.90
2019-01-19T10:39:30.803Z,6.40
2019-01-19T10:42:00.281Z,6.97
2019-01-19T10:44:29.985Z,6.03
2019-01-19T10:47:03.718Z,6.17
2019-01-19T10:49:33.298Z,7.27
2019-01-19T10:52:02.816Z,5.33
2019-01-19T10:54:32.322Z,4.97
2019-01-19T10:57:01.860Z,5.00
2019-01-19T10:59:31.512Z,5.00
2019-01-19T11:02:02.588Z,4.50
2019-01-19T11:04:32.614Z,5.07
2019-01-19T11:07:02.260Z,3.97
2019-01-19T11:09:31.821Z,4.87
2019-01-19T11:12:01.400Z,5.37
2019-01-19T11:14:31.126Z,5.00
2019-01-19T11:17:00.782Z,3.83
2019-01-19T11:19:30.392Z,4.73
2019-01-19T11:21:59.925Z,5.13
2019-01-19T11:24:29.536Z,5.57
2019-01-19T11:26:58.990Z,4.60
2019-01-19T11:29:28.684Z,3.83
2019-01-19T11:31:58.186Z,5.23
2019-01-19T11:34:27.842Z,5.10
2019-01-19T11:36:57.417Z,3.57
2019-01-19T11:39:27.203Z,4.67
2019-01-19T11:41:56.670Z,5.60
2019-01-19T11:44:26.197Z,4.70
2019-01-19T11:46:55.796Z,4.40
2019-01-19T11:49:25.545Z,4.67
2019-01-19T11:51:55.448Z,4.30
2019-01-19T11:54:25.180Z,4.47
2019-01-19T11:56:54.782Z,5.13
2019-01-19T11:59:24.460Z,5.17
2019-01-19T12:01:54.153Z,5.30
2019-01-19T12:04:23.943Z,4.93
2019-01-19T12:06:53.705Z,4.27
2019-01-19T12:09:23.333Z,3.37
2019-01-19T12:11:52.822Z,3.80
2019-01-19T12:14:22.455Z,5.20
2019-01-19T12:16:52.091Z,5.13
2019-01-19T12:19:21.747Z,3.80
2019-01-19T12:21:51.563Z,4.47
2019-01-19T12:24:21.255Z,4.07
2019-01-19T12:26:50.792Z,3.47
2019-01-19T12:29:20.399Z,5.57
2019-01-19T12:31:49.960Z,3.93
2019-01-19T12:34:19.539Z,5.30
2019-01-19T12:36:49.263Z,5.53
2019-01-19T12:39:18.870Z,3.60
2019-01-19T12:41:48.608Z,4.00
2019-01-19T12:44:18.614Z,4.17
2019-01-19T12:46:48.174Z,4.63
2019-01-19T12:49:17.791Z,4.50
2019-01-19T12:51:47.469Z,3.80
2019-01-19T12:54:16.995Z,3.23
2019-01-19T12:56:46.653Z,4.97
2019-01-19T12:59:16.190Z,4.83
2019-01-19T13:01:45.875Z,4.50
2019-01-19T13:04:15.668Z,5.73
2019-01-19T13:06:59.282Z,4.60
2019-01-19T13:09:44.895Z,5.00
2019-01-19T13:12:35.128Z,4.10
2019-01-19T13:15:58.147Z,3.70
2019-01-19T13:18:39.617Z,4.90
2019-01-19T13:21:35.656Z,4.30
2019-01-19T13:24:16.817Z,4.30
2019-01-19T13:27:01.634Z,4.23
2019-01-19T13:30:24.478Z,4.27
2019-01-19T13:33:15.797Z,5.30
2019-01-19T13:36:16.197Z,4.90
2019-01-19T13:39:28.635Z,4.70
2019-01-19T13:42:29.705Z,4.10
2019-01-19T13:45:42.422Z,4.60
2019-01-19T13:49:00.676Z,5.27
2019-01-19T13:51:44.576Z,4.20
2019-01-19T13:54:57.097Z,4.47
2019-01-19T13:57:54.414Z,5.87
2019-01-19T14:00:47.820Z,4.33
2019-01-19T14:04:07.522Z,3.80
2019-01-19T14:07:05.718Z,4.30
2019-01-19T14:10:31.607Z,3.63
2019-01-19T14:13:36.723Z,5.33
2019-01-19T14:16:31.636Z,4.73
2019-01-19T14:19:40.881Z,4.50
2019-01-19T14:22:45.405Z,5.07
2019-01-19T14:25:35.579Z,4.67
2019-01-19T14:28:56.789Z,2.80
2019-01-19T14:32:08.735Z,4.40
2019-01-19T14:35:21.617Z,4.47
2019-01-19T14:38:27.944Z,3.73
2019-01-19T14:41:38.903Z,4.03
2019-01-19T14:44:44.539Z,3.73
2019-01-19T14:47:41.657Z,4.33
2019-01-19T14:50:21.610Z,4.20
2019-01-19T14:53:32.136Z,4.00
2019-01-19T14:56:24.597Z,4.43
2019-01-19T14:59:24.950Z,4.30
2019-01-19T15:02:43.657Z,4.33
2019-01-19T15:05:54.207Z,5.30
2019-01-19T15:09:09.025Z,4.03
2019-01-19T15:12:14.926Z,4.87
2019-01-19T15:15:05.345Z,5.50
2019-01-19T15:18:26.904Z,4.67
2019-01-19T15:21:51.116Z,5.37
2019-01-19T15:24:54.688Z,5.83
2019-01-19T15:28:21.770Z,4.43
2019-01-19T15:31:45.769Z,3.40
2019-01-19T15:35:01.961Z,4.37
2019-01-19T15:38:01.936Z,4.00
2019-01-19T15:40:56.345Z,4.33
2019-01-19T15:43:55.645Z,4.60
2019-01-19T15:47:03.737Z,5.40
2019-01-19T15:50:21.594Z,4.40
2019-01-19T15:53:05.545Z,5.27
2019-01-19T15:56:06.152Z,3.17
2019-01-19T15:59:12.239Z,4.83
2019-01-19T16:02:10.326Z,4.20
2019-01-19T16:05:19.418Z,3.93
2019-01-19T16:08:25.595Z,3.77
2019-01-19T16:11:17.527Z,3.43
2019-01-19T16:14:39.336Z,5.73
2019-01-19T16:17:46.886Z,4.17
2019-01-19T16:20:48.558Z,4.60
2019-01-19T16:23:54.895Z,5.60
2019-01-19T16:30:04.789Z,5.67
2019-01-19T16:33:28.671Z,4.67
2019-01-19T16:37:02.866Z,4.70
2019-01-19T16:40:13.939Z,5.37
2019-01-19T16:50:45.438Z,5.10
2019-01-19T16:53:45.204Z,4.60
2019-01-19T16:56:52.954Z,5.47
2019-01-19T17:00:24.161Z,5.63
2019-01-19T17:03:58.716Z,5.80
2019-01-19T17:10:52.229Z,6.07
2019-01-19T17:13:58.419Z,6.83
2019-01-19T17:16:46.330Z,6.60
2019-01-19T17:23:09.754Z,5.80
2019-01-19T17:26:17.416Z,6.90
2019-01-19T17:29:10.045Z,8.83
2019-01-19T17:39:45.531Z,7.60
2019-01-19T17:50:10.759Z,6.20
2019-01-19T17:57:18.715Z,7.13
2019-01-19T18:00:07.045Z,7.97
2019-01-19T18:03:02.620Z,9.10
2019-01-19T18:06:10.247Z,7.37
2019-01-19T18:15:34.995Z,7.70
2019-01-19T18:18:59.678Z,7.43
2019-01-19T18:21:47.846Z,8.47
2019-01-19T18:24:55.467Z,7.33
2019-01-19T18:28:01.969Z,7.60
2019-01-19T18:33:58.165Z,5.87
2019-01-19T18:37:05.915Z,8.27
2019-01-19T18:40:19.144Z,6.80
2019-01-19T18:43:11.807Z,8.03
2019-01-19T18:46:04.470Z,9.77
2019-01-19T18:48:58.784Z,7.33
2019-01-19T18:51:54.645Z,7.30
2019-01-19T18:59:03.847Z,7.50
2019-01-19T19:02:12.818Z,7.10
2019-01-19T19:05:07.865Z,5.93
2019-01-19T19:08:15.570Z,6.80
2019-01-19T19:11:29.607Z,6.40
2019-01-19T19:14:24.120Z,6.70
2019-01-19T19:17:31.858Z,6.10
2019-01-19T19:20:13.323Z,7.27
2019-01-19T19:23:19.286Z,7.70
2019-01-19T19:26:26.943Z,4.97
2019-01-19T19:29:34.724Z,6.60
2019-01-19T19:32:42.326Z,7.77
2019-01-19T19:35:49.956Z,5.73
2019-01-19T19:38:52.975Z,7.50
2019-01-19T19:41:34.579Z,4.80
2019-01-19T19:44:45.157Z,6.30
2019-01-19T19:47:52.740Z,6.27
2019-01-19T19:50:46.601Z,7.37
2019-01-19T19:53:16.710Z,5.93
2019-01-19T19:56:04.448Z,6.13
2019-01-19T19:58:34.557Z,7.13
2019-01-19T20:01:04.678Z,5.90
2019-01-19T20:03:34.765Z,7.10
2019-01-19T20:06:04.932Z,7.10
2019-01-19T20:08:34.736Z,7.27
2019-01-19T20:11:23.543Z,6.33
2019-01-19T20:13:53.603Z,6.20
2019-01-19T20:16:23.811Z,7.03
2019-01-19T20:18:53.899Z,6.20
2019-01-19T20:21:23.798Z,6.90
2019-01-19T20:23:53.948Z,7.40
2019-01-19T20:26:24.028Z,8.63
2019-01-19T20:28:54.174Z,7.00
2019-01-19T20:31:43.009Z,8.17
2019-01-19T20:34:13.189Z,5.20
2019-01-19T20:36:43.358Z,7.77
2019-01-19T20:39:13.416Z,6.67
2019-01-19T20:41:43.386Z,7.30
2019-01-19T20:44:13.352Z,5.87
2019-01-19T20:46:43.549Z,7.70
2019-01-19T20:49:49.984Z,7.30
2019-01-19T20:52:20.054Z,6.90
2019-01-19T20:54:49.999Z,7.83
2019-01-19T20:57:19.989Z,7.20
2019-01-19T20:59:51.366Z,7.03
2019-01-19T21:02:21.500Z,6.57
2019-01-19T21:04:51.677Z,6.77
2019-01-19T21:07:21.690Z,9.33
2019-01-19T21:10:10.575Z,7.40
2019-01-19T21:12:40.678Z,6.40
2019-01-19T21:15:12.458Z,8.30
2019-01-19T21:17:43.067Z,7.97
2019-01-19T21:20:13.766Z,8.27
2019-01-19T21:22:43.657Z,7.93
2019-01-19T21:25:14.157Z,6.30
2019-01-19T21:27:44.238Z,8.83
2019-01-19T21:30:36.128Z,8.23
2019-01-19T21:33:06.028Z,6.80
2019-01-19T21:35:35.891Z,8.27
2019-01-19T21:38:42.114Z,8.20
2019-01-19T21:41:12.016Z,6.97
2019-01-19T21:43:43.228Z,8.30
2019-01-19T21:46:13.213Z,7.30
2019-01-19T21:48:42.778Z,7.73
2019-01-19T21:51:12.339Z,8.03
2019-01-19T21:53:42.000Z,9.07
2019-01-19T21:56:11.681Z,7.47
2019-01-19T21:58:41.414Z,7.37
2019-01-19T22:01:11.141Z,6.13
2019-01-19T22:03:40.779Z,8.03
2019-01-19T22:06:10.319Z,7.30
2019-01-19T22:08:39.956Z,10.23
2019-01-19T22:11:10.579Z,9.43
2019-01-19T22:13:40.303Z,6.93
2019-01-19T22:16:09.955Z,11.23
2019-01-19T22:18:39.623Z,11.20
2019-01-19T22:21:09.197Z,7.20
2019-01-19T22:23:38.841Z,8.77
2019-01-19T22:26:10.116Z,8.67
2019-01-19T22:28:39.644Z,8.03
2019-01-19T22:31:09.163Z,8.90
2019-01-19T22:33:38.858Z,9.17
2019-01-19T22:36:08.578Z,9.23
2019-01-19T22:38:38.263Z,10.13
2019-01-19T22:41:07.807Z,12.40
2019-01-19T22:43:37.411Z,8.60
2019-01-19T22:46:07.091Z,10.73
2019-01-19T22:48:36.603Z,8.87
2019-01-19T22:51:11.218Z,8.93
2019-01-19T22:53:37.509Z,9.17
2019-01-19T22:56:07.007Z,8.00
2019-01-19T22:58:36.682Z,7.30
2019-01-19T23:01:47.287Z,9.63
2019-01-19T23:04:17.056Z,8.37
2019-01-19T23:06:46.746Z,8.83
2019-01-19T23:09:16.467Z,8.50
2019-01-19T23:11:46.057Z,8.27
2019-01-19T23:14:15.788Z,9.20
2019-01-19T23:16:45.403Z,8.20
2019-01-19T23:19:15.037Z,9.10
2019-01-19T23:21:44.527Z,9.50
2019-01-19T23:24:14.179Z,7.43
2019-01-19T23:26:43.996Z,9.07
2019-01-19T23:29:13.717Z,7.37
2019-01-19T23:31:43.520Z,8.03
2019-01-19T23:34:13.097Z,6.10
2019-01-19T23:36:42.736Z,6.83
2019-01-19T23:39:12.698Z,7.53
2019-01-19T23:41:42.308Z,7.47
2019-01-19T23:44:11.895Z,7.40
2019-01-19T23:46:41.670Z,7.13
2019-01-19T23:49:11.357Z,5.00
2019-01-19T23:51:41.027Z,9.13
2019-01-19T23:54:10.718Z,5.70
2019-01-19T23:56:40.378Z,6.70
2019-01-19T23:59:10.023Z,6.80
